Skardu Weather



Skardu's Current Weather

Temprature 2.9o clear sky

clear sky

Rain: 0 %

Min Temprature2.9o
Max Temprature2.9o
Humidity25
Wind Speed1.04 m/h
Sun Rise05:32:47
Sun Set18:24:48
Current Time: 09-Apr-2020 01:44:03
Lat/Lon: 35.29, 75.63




Skardu's Geo Location



Skardu's Weather Forecast

Time Overall Temp Min Temp Max Temp Humidity Wind Speed Rain
09-Apr-2020 (Thu)
02:00:00 clear sky 2.900 2.900 2.900 25 1.04 m/h 0 %
05:00:00 clear sky 1.980 1.980 1.980 27 1.18 m/h 0 %
08:00:00 clear sky 5.560 5.560 5.560 23 1.72 m/h 0 %
11:00:00 scattered clouds 8.880 8.880 8.880 19 2.58 m/h 0 %
14:00:00 overcast clouds 10.390 10.390 10.390 18 2.41 m/h 0 %
17:00:00 overcast clouds 9.350 9.350 9.350 19 1.7 m/h 0 %
20:00:00 overcast clouds 6.300 6.300 6.300 23 0.94 m/h 0 %
23:00:00 overcast clouds 6.850 6.850 6.850 23 1.42 m/h 0 %
10-Apr-2020 (Fri)
02:00:00 overcast clouds 5.780 5.780 5.780 26 1.68 m/h 0 %
05:00:00 snow 4.630 4.630 4.630 27 1.79 m/h 0 %
08:00:00 overcast clouds 6.210 6.210 6.210 25 1.27 m/h 0 %
11:00:00 broken clouds 8.880 8.880 8.880 22 0.54 m/h 0 %
14:00:00 few clouds 10.730 10.730 10.730 18 0.89 m/h 0 %
17:00:00 few clouds 9.470 9.470 9.470 19 0.81 m/h 0 %
20:00:00 few clouds 5.420 5.420 5.420 23 0.49 m/h 0 %
23:00:00 clear sky 3.970 3.970 3.970 24 1.46 m/h 0 %
11-Apr-2020 (Sat)
02:00:00 clear sky 2.940 2.940 2.940 24 1.4 m/h 0 %
05:00:00 clear sky 2.430 2.430 2.430 25 1.54 m/h 0 %
08:00:00 scattered clouds 6.140 6.140 6.140 21 1.26 m/h 0 %
11:00:00 scattered clouds 9.740 9.740 9.740 18 1 m/h 0 %
14:00:00 clear sky 11.990 11.990 11.990 16 0.64 m/h 0 %
17:00:00 few clouds 10.980 10.980 10.980 17 0.9 m/h 0 %
20:00:00 clear sky 7.160 7.160 7.160 21 1.31 m/h 0 %
23:00:00 clear sky 5.790 5.790 5.790 22 1.58 m/h 0 %
12-Apr-2020 (Sun)
02:00:00 clear sky 4.990 4.990 4.990 22 1.54 m/h 0 %
05:00:00 scattered clouds 4.280 4.280 4.280 23 1.57 m/h 0 %
08:00:00 scattered clouds 8.040 8.040 8.040 19 1.2 m/h 0 %
11:00:00 scattered clouds 11.580 11.580 11.580 17 1.01 m/h 0 %
14:00:00 few clouds 13.830 13.830 13.830 15 0.49 m/h 0 %
17:00:00 scattered clouds 12.840 12.840 12.840 15 0.8 m/h 0 %
20:00:00 few clouds 9.290 9.290 9.290 19 1.45 m/h 0 %
23:00:00 few clouds 7.750 7.750 7.750 20 1.38 m/h 0 %
13-Apr-2020 (Mon)
02:00:00 broken clouds 6.480 6.480 6.480 21 1.36 m/h 0 %
05:00:00 broken clouds 5.810 5.810 5.810 21 1.27 m/h 0 %
08:00:00 few clouds 9.600 9.600 9.600 18 1.08 m/h 0 %
11:00:00 broken clouds 12.960 12.960 12.960 15 1.18 m/h 0 %
14:00:00 overcast clouds 14.740 14.740 14.740 14 1.05 m/h 0 %
17:00:00 overcast clouds 14.230 14.230 14.230 15 0.6 m/h 0 %
20:00:00 overcast clouds 11.350 11.350 11.350 17 0.62 m/h 0 %
23:00:00 overcast clouds 10.480 10.480 10.480 18 0.53 m/h 0 %

Famous Cities (61)